Time;durP1;ratioP1;P1;durP2;ratioP2;P2;SDS_P1;SDS_P2;PMS_P1;PMS_P2;Temp;Humidity;BMP_temperature;BMP_pressure;BME280_temperature;BME280_humidity;BME280_pressure;Samples;Min_cycle;Max_cycle;Signal;HPM_P1;HPM_P2
2023/05/10 00:02:24;;;;;;;14.20;10.57;;;;;;;13.78;100.00;100766.47;5051884;28;20032;-70
2023/05/10 00:04:49;;;;;;;15.55;11.48;;;;;;;13.76;100.00;100774.47;5052200;28;20116;-70
2023/05/10 00:07:17;;;;;;;16.60;11.68;;;;;;;13.73;100.00;100769.16;5051930;28;20033;-70
2023/05/10 00:09:43;;;;;;;14.45;11.13;;;;;;;13.73;100.00;100776.25;5035078;28;20068;-70
2023/05/10 00:12:08;;;;;;;17.00;12.10;;;;;;;13.70;100.00;100770.94;5055788;28;20061;-70
2023/05/10 00:14:34;;;;;;;19.77;11.90;;;;;;;13.67;100.00;100769.19;5055892;28;20048;-70
2023/05/10 00:17:00;;;;;;;18.30;12.52;;;;;;;13.67;100.00;100771.84;5055528;28;20504;-70
2023/05/10 00:19:25;;;;;;;16.65;12.63;;;;;;;13.67;100.00;100770.97;5055600;28;20033;-70
2023/05/10 00:21:50;;;;;;;19.10;12.93;;;;;;;13.68;100.00;100768.28;5037803;28;20044;-70
2023/05/10 00:24:16;;;;;;;18.00;12.93;;;;;;;13.68;100.00;100770.06;5055526;28;20113;-70
2023/05/10 00:26:42;;;;;;;19.77;12.55;;;;;;;13.70;100.00;100776.25;5055483;28;20440;-70
2023/05/10 00:29:07;;;;;;;18.67;12.65;;;;;;;13.68;100.00;100772.72;5055470;28;20399;-70
2023/05/10 00:31:33;;;;;;;18.95;12.48;;;;;;;13.67;100.00;100771.84;5055451;28;20037;-70
2023/05/10 00:33:58;;;;;;;18.17;12.43;;;;;;;13.66;100.00;100779.78;5037505;28;20033;-70
2023/05/10 00:36:23;;;;;;;18.75;12.93;;;;;;;13.61;100.00;100768.31;5055075;28;20033;-70
2023/05/10 00:38:49;;;;;;;15.60;11.23;;;;;;;13.63;100.00;100771.84;5055271;28;20028;-70
2023/05/10 00:41:15;;;;;;;18.10;13.45;;;;;;;13.60;100.00;100771.84;5054991;28;20401;-70
2023/05/10 00:43:41;;;;;;;18.65;13.30;;;;;;;13.57;100.00;100786.00;5055173;28;20025;-70
2023/05/10 00:46:07;;;;;;;19.05;13.43;;;;;;;13.55;100.00;100779.84;5054753;28;20539;-70
2023/05/10 00:48:32;;;;;;;19.80;13.02;;;;;;;13.55;100.00;100773.66;5055261;28;20025;-70
2023/05/10 00:50:58;;;;;;;19.65;13.45;;;;;;;13.57;100.00;100772.75;5055268;28;20052;-70
2023/05/10 00:53:24;;;;;;;17.33;12.38;;;;;;;13.57;100.00;100777.16;5055232;28;20032;-70
2023/05/10 00:55:50;;;;;;;21.02;13.48;;;;;;;13.58;100.00;100774.53;5054936;28;20021;-70
2023/05/10 00:58:16;;;;;;;19.15;13.57;;;;;;;13.58;100.00;100773.66;5054944;28;20436;-70
2023/05/10 01:00:43;;;;;;;20.13;13.50;;;;;;;13.62;100.00;100767.41;5055038;28;20021;-71
2023/05/10 01:03:10;;;;;;;19.85;14.68;;;;;;;13.55;100.00;100763.91;5054679;28;20104;-70
2023/05/10 01:05:35;;;;;;;20.33;14.45;;;;;;;13.48;100.00;100765.69;5054717;28;20478;-70
2023/05/10 01:08:02;;;;;;;21.27;13.75;;;;;;;13.48;100.00;100757.72;5054397;28;20026;-70
2023/05/10 01:10:27;;;;;;;25.17;14.40;;;;;;;13.47;100.00;100763.91;5054989;28;20491;-70
2023/05/10 01:12:53;;;;;;;21.67;15.65;;;;;;;13.49;100.00;100770.13;5054458;28;20036;-70
2023/05/10 01:15:20;;;;;;;24.02;15.75;;;;;;;13.49;100.00;100771.91;5054269;28;20474;-70
2023/05/10 01:17:47;;;;;;;24.15;15.25;;;;;;;13.45;100.00;100770.13;5054009;28;20044;-70
2023/05/10 01:20:12;;;;;;;22.77;15.23;;;;;;;13.44;100.00;100774.53;5054514;28;20044;-70
2023/05/10 01:22:41;;;;;;;22.98;15.57;;;;;;;13.43;100.00;100767.47;5053551;28;20482;-70
2023/05/10 01:25:34;;;;;;;23.92;15.30;;;;;;;13.45;100.00;100767.50;5054376;28;20571;-70
2023/05/10 01:28:50;;;;;;;24.35;16.27;;;;;;;13.47;100.00;100763.91;5054320;28;20051;-70
2023/05/10 01:31:42;;;;;;;29.92;18.10;;;;;;;13.44;100.00;100763.91;4999499;28;20053;-70
2023/05/10 01:34:23;;;;;;;27.70;17.45;;;;;;;13.44;100.00;100763.03;5054190;28;20119;-70
2023/05/10 01:36:56;;;;;;;31.35;18.55;;;;;;;13.39;100.00;100759.53;5054120;28;20025;-70
2023/05/10 01:39:30;;;;;;;25.73;16.50;;;;;;;13.42;100.00;100762.19;5054145;28;20029;-70
2023/05/10 01:42:07;;;;;;;41.25;23.73;;;;;;;13.41;100.00;100761.28;5053935;28;20067;-70
2023/05/10 01:44:42;;;;;;;43.53;26.05;;;;;;;13.45;100.00;100762.19;5054462;28;20037;-70
2023/05/10 01:47:15;;;;;;;48.55;27.45;;;;;;;13.44;100.00;100766.56;5054076;28;20052;-69
2023/05/10 01:49:49;;;;;;;53.38;28.52;;;;;;;13.43;100.00;100763.94;5054142;28;20075;-70
2023/05/10 01:52:19;;;;;;;58.15;29.92;;;;;;;13.42;100.00;100771.03;5053946;28;20089;-70
2023/05/10 01:55:06;;;;;;;55.58;30.17;;;;;;;13.47;100.00;100777.19;5053196;28;20128;-70
2023/05/10 01:57:37;;;;;;;57.13;30.75;;;;;;;13.48;100.00;100768.34;5053307;28;20094;-70
2023/05/10 02:00:04;;;;;;;55.63;29.27;;;;;;;13.49;100.00;100774.56;5053763;28;20064;-70
2023/05/10 02:02:35;;;;;;;60.15;30.65;;;;;;;13.51;100.00;100772.78;5053840;28;20090;-70
2023/05/10 02:05:03;;;;;;;50.17;27.60;;;;;;;13.53;100.00;100777.19;5053639;28;20021;-70
2023/05/10 02:07:30;;;;;;;54.03;28.33;;;;;;;13.54;100.00;100772.78;5053204;28;20059;-70
2023/05/10 02:09:57;;;;;;;53.28;29.50;;;;;;;13.56;100.00;100778.94;5053497;28;20024;-70
2023/05/10 02:12:23;;;;;;;51.25;29.75;;;;;;;13.57;100.00;100779.81;5053378;28;20474;-70
2023/05/10 02:14:52;;;;;;;52.65;29.63;;;;;;;13.59;100.00;100781.59;5053742;28;20175;-70
2023/05/10 02:17:18;;;;;;;54.92;30.60;;;;;;;13.60;100.00;100785.13;5053307;28;20053;-70
2023/05/10 02:19:46;;;;;;;53.47;28.92;;;;;;;13.62;100.00;100788.66;5053220;28;20025;-70
2023/05/10 02:22:12;;;;;;;46.30;27.58;;;;;;;13.63;100.00;100787.78;5053277;28;20025;-70
2023/05/10 02:24:39;;;;;;;46.75;28.05;;;;;;;13.64;100.00;100790.44;5053400;28;20520;-70
2023/05/10 02:27:06;;;;;;;48.50;29.70;;;;;;;13.63;100.00;100799.28;5053129;28;20029;-70
2023/05/10 02:29:33;;;;;;;49.47;29.10;;;;;;;13.65;100.00;100801.94;5053174;28;20067;-70
2023/05/10 02:31:59;;;;;;;47.72;29.08;;;;;;;13.63;100.00;100793.09;5052755;28;20028;-70
2023/05/10 02:34:28;;;;;;;43.83;26.70;;;;;;;13.64;100.00;100795.75;5052999;28;20500;-70
2023/05/10 02:36:54;;;;;;;49.30;29.13;;;;;;;13.64;100.00;100789.53;5052746;28;20028;-70
2023/05/10 02:39:22;;;;;;;49.85;30.60;;;;;;;13.62;100.00;100780.69;5052981;28;20025;-70
2023/05/10 02:41:50;;;;;;;49.08;28.90;;;;;;;13.59;100.00;100786.91;5052877;28;20048;-70
2023/05/10 02:44:18;;;;;;;54.53;31.98;;;;;;;13.57;100.00;100793.97;5053190;28;20087;-70
2023/05/10 02:46:44;;;;;;;56.08;33.17;;;;;;;13.57;100.00;100791.31;5052796;28;20478;-70
2023/05/10 02:49:09;;;;;;;57.83;33.35;;;;;;;13.53;100.00;100792.22;5053085;28;20025;-70
2023/05/10 02:51:40;;;;;;;56.53;32.83;;;;;;;13.55;100.00;100786.94;5052934;28;20022;-70
2023/05/10 02:54:20;;;;;;;55.35;33.72;;;;;;;13.56;100.00;100786.03;5052996;28;20031;-70
2023/05/10 02:57:02;;;;;;;57.72;35.83;;;;;;;13.53;100.00;100794.88;5052578;28;20504;-70
2023/05/10 02:59:28;;;;;;;57.83;34.05;;;;;;;13.51;100.00;100797.53;5033152;28;20045;-70
2023/05/10 03:01:53;;;;;;;59.03;35.45;;;;;;;13.48;100.00;100789.56;5032934;28;20022;-70
2023/05/10 03:04:19;;;;;;;53.17;32.63;;;;;;;13.46;100.00;100787.81;5032761;28;20052;-70
2023/05/10 03:06:45;;;;;;;61.70;35.80;;;;;;;13.41;100.00;100795.81;5032283;28;20084;-70
2023/05/10 03:09:12;;;;;;;58.22;35.97;;;;;;;13.41;100.00;100792.28;5032890;28;20420;-70
2023/05/10 03:12:02;;;;;;;63.72;36.17;;;;;;;13.41;100.00;100795.81;5032605;28;20474;-70
2023/05/10 03:14:48;;;;;;;63.47;37.03;;;;;;;13.39;100.00;100799.34;5032623;28;20076;-70
2023/05/10 03:17:29;;;;;;;62.97;37.42;;;;;;;13.36;100.00;100800.25;5032580;28;20033;-70
2023/05/10 03:19:57;;;;;;;60.08;35.80;;;;;;;13.34;100.00;100793.16;5032713;28;20026;-70
2023/05/10 03:22:31;;;;;;;59.40;35.85;;;;;;;13.33;100.00;100794.94;5032533;28;20112;-70
2023/05/10 03:24:58;;;;;;;62.67;36.88;;;;;;;13.30;100.00;100797.56;5032885;28;20026;-70
2023/05/10 03:27:25;;;;;;;63.97;37.20;;;;;;;13.27;100.00;100809.09;5032609;28;20045;-70
2023/05/10 03:29:52;;;;;;;63.63;37.13;;;;;;;13.25;100.00;100804.66;5032854;28;20025;-70
2023/05/10 03:32:18;;;;;;;60.90;36.22;;;;;;;13.24;100.00;100800.25;5032461;28;20091;-70
2023/05/10 03:34:43;;;;;;;51.25;33.50;;;;;;;13.24;100.00;100806.44;5032469;28;20466;-70
2023/05/10 03:37:09;;;;;;;55.92;34.20;;;;;;;13.26;100.00;100806.44;5032443;28;20036;-70
2023/05/10 03:39:34;;;;;;;56.50;34.13;;;;;;;13.26;100.00;100803.78;5032637;28;20037;-70
2023/05/10 03:42:00;;;;;;;53.33;31.73;;;;;;;13.30;100.00;100804.66;5032334;28;20532;-70
2023/05/10 03:44:25;;;;;;;50.42;33.05;;;;;;;13.31;100.00;100809.06;5032924;28;20034;-70
2023/05/10 03:46:50;;;;;;;53.00;32.45;;;;;;;13.31;100.00;100815.25;5036310;28;20096;-70
2023/05/10 03:49:16;;;;;;;51.45;31.17;;;;;;;13.31;100.00;100815.25;5036645;28;20071;-70
2023/05/10 03:51:41;;;;;;;49.95;30.10;;;;;;;13.30;100.00;100818.81;5035973;28;20052;-70
2023/05/10 03:54:07;;;;;;;47.97;29.67;;;;;;;13.32;100.00;100813.47;5036311;28;20024;-70
2023/05/10 03:56:32;;;;;;;51.38;30.83;;;;;;;13.31;100.00;100815.25;5036164;28;20478;-70
2023/05/10 03:58:57;;;;;;;47.97;28.42;;;;;;;13.32;100.00;100818.78;5036108;28;20104;-70
2023/05/10 04:01:23;;;;;;;50.83;30.67;;;;;;;13.31;100.00;100817.03;5035987;28;20033;-70
2023/05/10 04:03:48;;;;;;;49.80;28.77;;;;;;;13.29;100.00;100832.97;5035951;28;20364;-70
2023/05/10 04:06:14;;;;;;;51.30;30.42;;;;;;;13.26;100.00;100828.53;5035588;28;20113;-70
2023/05/10 04:08:39;;;;;;;49.38;30.42;;;;;;;13.27;100.00;100830.31;5036181;28;20034;-70
2023/05/10 04:11:12;;;;;;;50.00;29.10;;;;;;;13.25;100.00;100828.53;5035807;28;20033;-70
2023/05/10 04:13:38;;;;;;;47.75;29.27;;;;;;;13.28;100.00;100833.84;5018053;28;20060;-70
2023/05/10 04:16:04;;;;;;;49.10;29.33;;;;;;;13.29;100.00;100835.63;5035622;28;20060;-70
2023/05/10 04:18:31;;;;;;;49.97;29.15;;;;;;;13.29;100.00;100832.97;5035972;28;20113;-70
2023/05/10 04:20:56;;;;;;;51.60;29.90;;;;;;;13.28;100.00;100832.09;5035561;28;20079;-70
2023/05/10 04:23:22;;;;;;;56.78;32.78;;;;;;;13.28;100.00;100825.91;5035819;28;20029;-70
2023/05/10 04:25:47;;;;;;;61.85;33.92;;;;;;;13.27;100.00;100832.06;5035542;28;20471;-70
2023/05/10 04:28:12;;;;;;;62.88;35.70;;;;;;;13.24;100.00;100829.44;5035676;28;20033;-70
2023/05/10 04:30:38;;;;;;;66.05;35.22;;;;;;;13.22;100.00;100829.41;5035486;28;20059;-70
2023/05/10 04:33:03;;;;;;;66.88;36.20;;;;;;;13.21;100.00;100830.28;5035299;28;20021;-70
2023/05/10 04:35:28;;;;;;;60.35;32.83;;;;;;;13.23;100.00;100836.53;5035218;28;20029;-70
2023/05/10 04:37:54;;;;;;;70.47;38.00;;;;;;;13.22;100.00;100844.44;5035079;28;20045;-70
2023/05/10 04:40:20;;;;;;;65.68;34.58;;;;;;;13.21;100.00;100840.88;5034934;28;20042;-70
2023/05/10 04:42:46;;;;;;;57.58;31.52;;;;;;;13.21;100.00;100843.53;5035447;28;20044;-70
2023/05/10 04:45:12;;;;;;;49.17;28.05;;;;;;;13.18;100.00;100848.84;5035185;28;20497;-70
2023/05/10 04:47:37;;;;;;;44.78;26.83;;;;;;;13.15;100.00;100845.34;5035089;28;20030;-71
2023/05/10 04:50:04;;;;;;;45.85;27.08;;;;;;;13.13;100.00;100847.09;5034957;28;20486;-70
2023/05/10 04:52:29;;;;;;;42.90;25.60;;;;;;;13.12;100.00;100854.16;5035018;28;20056;-70
2023/05/10 04:54:54;;;;;;;41.20;25.08;;;;;;;13.08;100.00;100856.81;5035022;28;20483;-70
2023/05/10 04:57:20;;;;;;;43.30;23.95;;;;;;;13.06;100.00;100859.47;5034577;28;20022;-70
2023/05/10 04:59:45;;;;;;;38.22;23.20;;;;;;;13.03;100.00;100859.47;5034997;28;20025;-70
2023/05/10 05:02:11;;;;;;;35.38;22.10;;;;;;;12.99;100.00;100861.22;5017026;28;20032;-70
2023/05/10 05:04:36;;;;;;;39.00;21.92;;;;;;;12.99;100.00;100852.38;5034677;28;20554;-70
2023/05/10 05:07:01;;;;;;;35.13;20.60;;;;;;;13.01;100.00;100859.44;5016810;28;20025;-70
2023/05/10 05:09:27;;;;;;;36.80;20.98;;;;;;;13.04;100.00;100866.53;5034448;28;20525;-70
2023/05/10 05:11:52;;;;;;;37.03;21.60;;;;;;;13.06;100.00;100867.44;5034684;28;20030;-70
2023/05/10 05:14:18;;;;;;;34.17;20.30;;;;;;;13.11;100.00;100863.00;5034519;28;20026;-70
2023/05/10 05:16:43;;;;;;;32.10;19.60;;;;;;;13.15;100.00;100858.59;5034488;28;20060;-70
2023/05/10 05:19:08;;;;;;;33.70;20.38;;;;;;;13.15;100.00;100862.13;5034164;28;20026;-70
2023/05/10 05:21:34;;;;;;;33.95;20.63;;;;;;;13.16;100.00;100869.19;5034410;28;20029;-70
2023/05/10 05:24:00;;;;;;;32.15;20.63;;;;;;;13.20;100.00;100873.63;5034280;28;20536;-70
2023/05/10 05:26:26;;;;;;;36.50;20.67;;;;;;;13.23;100.00;100875.41;5034656;28;20040;-70
2023/05/10 05:28:54;;;;;;;32.97;20.88;;;;;;;13.24;100.00;100875.44;5034184;28;20030;-70
2023/05/10 05:31:19;;;;;;;32.22;21.25;;;;;;;13.27;100.00;100872.78;5033907;28;20040;-70
2023/05/10 05:33:45;;;;;;;34.65;20.98;;;;;;;13.29;100.00;100878.09;5034023;28;20029;-70
2023/05/10 05:36:10;;;;;;;32.10;20.75;;;;;;;13.34;100.00;100880.72;5033697;28;20032;-70
2023/05/10 05:38:36;;;;;;;34.00;20.73;;;;;;;13.31;100.00;100881.59;5034215;28;20034;-70
2023/05/10 05:41:02;;;;;;;32.97;20.75;;;;;;;13.33;100.00;100882.50;5034396;28;20061;-71
2023/05/10 05:43:27;;;;;;;32.90;19.90;;;;;;;13.34;100.00;100883.38;5036671;28;20034;-70
2023/05/10 05:45:57;;;;;;;32.72;20.83;;;;;;;13.34;100.00;100886.91;5037477;28;20037;-70
2023/05/10 05:48:23;;;;;;;32.78;20.83;;;;;;;13.36;100.00;100892.22;5034901;28;20061;-70
2023/05/10 05:50:49;;;;;;;31.63;20.75;;;;;;;13.34;100.00;100886.03;5034511;28;20512;-70
2023/05/10 05:53:14;;;;;;;34.58;20.27;;;;;;;13.34;100.00;100888.69;5033835;28;20037;-71
2023/05/10 05:55:39;;;;;;;31.48;20.10;;;;;;;13.35;100.00;100879.84;5033891;28;20025;-71
2023/05/10 05:58:05;;;;;;;34.00;20.85;;;;;;;13.39;100.00;100879.84;5033770;28;20490;-70
2023/05/10 06:00:30;;;;;;;32.63;20.35;;;;;;;13.42;100.00;100884.28;5033736;28;20026;-70
2023/05/10 06:02:56;;;;;;;30.70;19.23;;;;;;;13.44;100.00;100890.44;5033311;28;20065;-70
2023/05/10 06:05:22;;;;;;;31.83;20.70;;;;;;;13.44;100.00;100887.78;5033675;28;20083;-70
2023/05/10 06:07:47;;;;;;;35.13;19.25;;;;;;;13.46;100.00;100896.66;5032942;28;20079;-70
2023/05/10 06:10:13;;;;;;;33.17;19.20;;;;;;;13.46;100.00;100901.97;5033538;28;20034;-70
2023/05/10 06:12:38;;;;;;;32.33;19.23;;;;;;;13.45;100.00;100908.16;5033453;28;20028;-70
2023/05/10 06:15:04;;;;;;;30.77;20.52;;;;;;;13.44;100.00;100909.03;5033496;28;20382;-70
2023/05/10 06:17:30;;;;;;;29.15;19.45;;;;;;;13.50;100.00;100917.91;5033007;28;20029;-71
2023/05/10 06:19:56;;;;;;;29.23;19.23;;;;;;;13.49;100.00;100905.50;5033421;28;20045;-71
2023/05/10 06:22:24;;;;;;;33.75;19.67;;;;;;;13.57;100.00;100902.84;5033467;28;20382;-70
2023/05/10 06:24:49;;;;;;;32.30;20.33;;;;;;;13.62;100.00;100914.34;5033319;28;20037;-71
2023/05/10 06:27:15;;;;;;;31.25;20.23;;;;;;;13.65;100.00;100909.03;5033343;28;20038;-69
2023/05/10 06:29:40;;;;;;;33.88;20.80;;;;;;;13.66;100.00;100905.50;5033453;28;20493;-70
2023/05/10 06:32:06;;;;;;;29.80;19.80;;;;;;;13.68;100.00;100911.69;5032776;28;20029;-71
2023/05/10 06:34:31;;;;;;;31.45;19.50;;;;;;;13.70;100.00;100915.25;5033213;28;20022;-71
2023/05/10 06:36:57;;;;;;;37.08;19.77;;;;;;;13.72;100.00;100918.75;5015296;28;20402;-70
2023/05/10 06:39:22;;;;;;;30.63;19.83;;;;;;;13.70;100.00;100914.31;5033180;28;20061;-70
2023/05/10 06:41:47;;;;;;;30.13;19.90;;;;;;;13.68;100.00;100921.44;5032763;28;20514;-70
2023/05/10 06:44:13;;;;;;;31.98;20.55;;;;;;;13.69;100.00;100923.19;5033235;28;20113;-70
2023/05/10 06:46:38;;;;;;;30.60;20.55;;;;;;;13.72;100.00;100920.53;5032730;28;20487;-70
2023/05/10 06:49:04;;;;;;;34.53;21.63;;;;;;;13.76;100.00;100927.63;5032678;28;20033;-71
2023/05/10 06:51:29;;;;;;;33.00;21.20;;;;;;;13.76;100.00;100930.28;5015262;28;20032;-71
2023/05/10 06:53:55;;;;;;;38.40;22.45;;;;;;;13.73;100.00;100935.56;5032645;28;20430;-71
2023/05/10 06:56:21;;;;;;;31.60;21.55;;;;;;;13.73;100.00;100938.22;5033061;28;20030;-71
2023/05/10 06:58:49;;;;;;;34.90;21.33;;;;;;;13.76;100.00;100933.81;5032743;28;20025;-70
2023/05/10 07:01:15;;;;;;;33.63;21.55;;;;;;;13.78;100.00;100940.00;5032555;28;20034;-71
2023/05/10 07:03:41;;;;;;;35.67;22.20;;;;;;;13.84;100.00;100943.56;5032699;28;20026;-71
2023/05/10 07:06:07;;;;;;;30.33;20.23;;;;;;;13.86;100.00;100937.34;5032592;28;20026;-71
2023/05/10 07:08:33;;;;;;;38.63;21.77;;;;;;;13.87;100.00;100944.41;5032895;28;20026;-71
2023/05/10 07:11:01;;;;;;;36.58;22.35;;;;;;;13.88;100.00;100953.28;5032865;28;20033;-70
2023/05/10 07:13:26;;;;;;;36.90;22.00;;;;;;;13.92;100.00;100949.75;5032615;28;20377;-70
2023/05/10 07:15:51;;;;;;;38.38;22.83;;;;;;;13.93;100.00;100955.03;5032926;28;20022;-70
2023/05/10 07:18:17;;;;;;;34.92;22.52;;;;;;;13.94;100.00;100954.16;5032439;28;20076;-70
2023/05/10 07:20:42;;;;;;;33.88;21.95;;;;;;;13.94;100.00;100956.81;5035446;28;20041;-70
2023/05/10 07:23:07;;;;;;;28.95;19.77;;;;;;;13.95;100.00;100953.25;5036623;28;20514;-70
2023/05/10 07:25:33;;;;;;;33.85;22.48;;;;;;;13.95;100.00;100960.34;5036457;28;20025;-70
2023/05/10 07:27:58;;;;;;;28.67;19.23;;;;;;;13.96;100.00;100963.03;5036585;28;20022;-70
2023/05/10 07:30:24;;;;;;;34.05;21.63;;;;;;;13.97;100.00;100963.91;5036701;28;20451;-71
2023/05/10 07:32:49;;;;;;;38.95;22.35;;;;;;;13.98;100.00;100971.84;5002233;28;20112;-71
2023/05/10 07:35:15;;;;;;;38.28;21.63;;;;;;;13.96;100.00;100963.03;5036476;28;20044;-70
2023/05/10 07:37:40;;;;;;;33.92;22.25;;;;;;;13.98;100.00;100965.66;5036447;28;20037;-71
2023/05/10 07:40:06;;;;;;;41.05;23.25;;;;;;;13.98;100.00;100966.53;5036505;28;20108;-71
2023/05/10 07:42:32;;;;;;;40.00;22.73;;;;;;;13.96;100.00;100967.41;5036113;28;20076;-71
2023/05/10 07:44:57;;;;;;;33.83;21.25;;;;;;;13.95;100.00;100974.50;5036915;28;20120;-71
2023/05/10 07:47:23;;;;;;;32.83;20.95;;;;;;;13.93;100.00;100976.28;5036650;28;20466;-71
2023/05/10 07:49:48;;;;;;;34.28;21.10;;;;;;;13.90;100.00;100975.41;5037011;28;20060;-71
2023/05/10 07:52:14;;;;;;;33.72;20.20;;;;;;;13.93;100.00;100986.94;5037047;28;20056;-71
2023/05/10 07:54:39;;;;;;;26.98;18.58;;;;;;;13.89;100.00;100978.97;5018702;28;20112;-71
2023/05/10 07:57:05;;;;;;;32.47;18.65;;;;;;;13.85;100.00;100982.50;5036009;28;20032;-72
2023/05/10 07:59:30;;;;;;;29.80;18.38;;;;;;;13.80;100.00;100987.81;5036016;28;20475;-71
2023/05/10 08:01:56;;;;;;;30.40;18.88;;;;;;;13.82;100.00;100993.13;5035950;28;20057;-71
2023/05/10 08:04:22;;;;;;;25.02;16.52;;;;;;;13.84;100.00;100997.56;5036142;28;20073;-71
2023/05/10 08:06:47;;;;;;;27.75;17.00;;;;;;;13.84;100.00;100996.69;5035786;28;20025;-71
2023/05/10 08:09:13;;;;;;;26.95;18.10;;;;;;;13.83;100.00;101005.50;5035914;28;20026;-71
2023/05/10 08:11:38;;;;;;;25.27;16.50;;;;;;;13.87;100.00;101010.81;5035873;28;20026;-71
2023/05/10 08:14:04;;;;;;;25.98;16.83;;;;;;;13.89;100.00;101014.38;5035744;28;20025;-71
2023/05/10 08:16:29;;;;;;;27.77;17.55;;;;;;;13.93;100.00;101015.25;5035675;28;20029;-71
2023/05/10 08:18:55;;;;;;;23.58;16.15;;;;;;;13.99;100.00;101018.78;5035934;28;20061;-71
2023/05/10 08:21:20;;;;;;;27.00;14.73;;;;;;;14.01;100.00;101018.81;5035830;28;20380;-72
2023/05/10 08:23:45;;;;;;;22.55;13.20;;;;;;;13.97;100.00;101017.91;5035628;28;20374;-69
2023/05/10 08:26:11;;;;;;;20.98;13.23;;;;;;;14.00;100.00;101017.94;5035384;28;20030;-66
2023/05/10 08:28:37;;;;;;;24.15;13.60;;;;;;;14.01;99.35;101026.78;5034592;28;20025;-73
2023/05/10 08:31:02;;;;;;;23.00;14.75;;;;;;;14.05;99.70;101025.88;5034262;28;20028;-72
2023/05/10 08:33:27;;;;;;;18.77;13.93;;;;;;;14.15;100.00;101027.63;5033773;28;20075;-73
2023/05/10 08:35:53;;;;;;;25.55;14.95;;;;;;;14.22;100.00;101033.84;5035015;28;20032;-75
2023/05/10 08:38:18;;;;;;;21.00;12.02;;;;;;;14.21;98.26;101027.63;5016706;28;20490;-73
2023/05/10 08:40:44;;;;;;;19.08;12.40;;;;;;;14.24;98.30;101037.38;5035382;28;20115;-74
2023/05/10 08:43:11;;;;;;;19.25;12.05;;;;;;;14.32;98.77;101037.38;5034987;28;20179;-72
2023/05/10 08:45:39;;;;;;;16.20;11.32;;;;;;;14.31;96.86;101028.50;5034986;28;20425;-71
2023/05/10 08:48:08;;;;;;;12.65;11.00;;;;;;;14.37;97.79;101035.59;5034918;28;20027;-70
2023/05/10 08:50:38;;;;;;;16.20;10.63;;;;;;;14.40;96.99;101038.25;5035085;28;20100;-70
2023/05/10 08:53:06;;;;;;;16.23;10.63;;;;;;;14.42;96.65;101044.44;5035256;28;20025;-71
2023/05/10 08:55:33;;;;;;;17.35;10.52;;;;;;;14.45;96.57;101045.31;5035144;28;20163;-71
2023/05/10 08:57:59;;;;;;;14.88;10.32;;;;;;;14.41;95.37;101053.31;5035242;28;20108;-71
2023/05/10 09:00:28;;;;;;;18.15;10.20;;;;;;;14.42;96.40;101047.09;5034842;28;20649;-71
2023/05/10 09:02:53;;;;;;;13.90;8.93;;;;;;;14.41;95.57;101042.66;5035079;28;20026;-71
2023/05/10 09:05:18;;;;;;;12.68;9.00;;;;;;;14.44;96.17;101053.31;5034964;28;20032;-71
2023/05/10 09:07:44;;;;;;;15.70;9.35;;;;;;;14.41;95.30;101051.53;5034658;28;20036;-71
2023/05/10 09:10:11;;;;;;;10.73;8.23;;;;;;;14.47;95.15;101055.94;5035229;28;20033;-71
2023/05/10 09:12:36;;;;;;;11.73;8.07;;;;;;;14.53;96.09;101050.66;5017143;28;20041;-71
2023/05/10 09:15:03;;;;;;;12.20;7.97;;;;;;;14.65;96.35;101053.28;5034692;28;20376;-71
2023/05/10 09:17:29;;;;;;;14.65;7.93;;;;;;;14.76;95.15;101055.91;5034740;28;20029;-71
2023/05/10 09:20:06;;;;;;;14.63;8.57;;;;;;;14.86;94.35;101057.66;5034852;28;20079;-71
2023/05/10 09:22:31;;;;;;;13.05;8.20;;;;;;;14.93;94.08;101053.19;5034690;28;20037;-71
2023/05/10 09:25:05;;;;;;;13.25;7.55;;;;;;;14.93;93.29;101056.72;5034495;28;20470;-71
2023/05/10 09:27:30;;;;;;;9.57;7.35;;;;;;;14.95;93.35;101054.09;5034368;28;20029;-71
2023/05/10 09:29:55;;;;;;;10.90;7.50;;;;;;;14.95;93.38;101054.09;5017441;28;20356;-70
2023/05/10 09:32:21;;;;;;;9.45;7.18;;;;;;;14.96;92.52;101067.38;5016565;28;20029;-70
2023/05/10 09:34:49;;;;;;;13.13;7.05;;;;;;;15.00;92.62;101058.50;5044746;28;20029;-69
2023/05/10 09:37:15;;;;;;;14.93;7.65;;;;;;;15.03;92.04;101058.50;5053975;28;20078;-71
2023/05/10 09:39:41;;;;;;;9.45;6.80;;;;;;;15.07;90.59;101071.75;5050825;28;20108;-71
2023/05/10 09:42:09;;;;;;;11.23;6.60;;;;;;;15.06;91.50;101065.56;5041072;28;20516;-70
2023/05/10 09:44:35;;;;;;;13.00;6.68;;;;;;;15.07;90.98;101058.44;5043740;28;20037;-70
2023/05/10 09:47:02;;;;;;;12.20;6.93;;;;;;;15.12;91.77;101070.88;5049709;28;20051;-70
2023/05/10 09:49:28;;;;;;;11.98;7.45;;;;;;;15.13;90.02;101064.66;5053909;28;20025;-71
2023/05/10 09:52:07;;;;;;;10.30;6.43;;;;;;;15.26;91.98;101070.81;5053714;28;20385;-70
2023/05/10 09:54:34;;;;;;;10.27;7.00;;;;;;;15.37;90.87;101063.63;5053602;28;20363;-71
2023/05/10 09:57:00;;;;;;;9.05;6.93;;;;;;;15.42;89.38;101068.94;5053711;28;20078;-69
2023/05/10 09:59:27;;;;;;;8.90;6.57;;;;;;;15.43;88.17;101071.59;5053950;28;20103;-70
2023/05/10 10:01:55;;;;;;;9.35;6.50;;;;;;;15.47;89.30;101068.03;5053527;28;20028;-70
2023/05/10 10:04:21;;;;;;;10.50;6.78;;;;;;;15.48;90.11;101069.78;5053545;28;20025;-71
2023/05/10 10:06:46;;;;;;;9.88;6.40;;;;;;;15.53;89.89;101072.41;5053284;28;20032;-71
2023/05/10 10:09:13;;;;;;;14.45;6.95;;;;;;;15.49;90.09;101070.66;5035500;28;20057;-72
2023/05/10 10:11:39;;;;;;;12.90;7.10;;;;;;;15.48;90.71;101077.78;5053522;28;20037;-71
2023/05/10 10:14:05;;;;;;;11.95;7.90;;;;;;;15.47;92.37;101075.13;5053356;28;20032;-71
2023/05/10 10:16:31;;;;;;;14.63;7.45;;;;;;;15.41;91.22;101076.03;5053386;28;20390;-72
2023/05/10 10:18:57;;;;;;;11.18;8.00;;;;;;;15.38;92.57;101077.84;5053389;28;20108;-72
2023/05/10 10:21:23;;;;;;;10.35;7.50;;;;;;;15.28;93.16;101079.66;5053786;28;20111;-71
2023/05/10 10:23:49;;;;;;;12.52;7.65;;;;;;;15.27;93.84;101077.88;5056357;28;20080;-71
2023/05/10 10:26:17;;;;;;;11.73;8.25;;;;;;;15.27;94.58;101077.88;5056564;28;20162;-71
2023/05/10 10:29:00;;;;;;;13.70;9.60;;;;;;;15.38;94.20;101076.06;5053473;28;20482;-71
2023/05/10 10:31:39;;;;;;;11.40;8.05;;;;;;;15.62;93.13;101076.81;5053181;28;20041;-71
2023/05/10 10:34:09;;;;;;;11.10;8.43;;;;;;;15.87;92.56;101078.44;5053074;28;20090;-71
2023/05/10 10:36:47;;;;;;;13.75;8.05;;;;;;;16.10;92.14;101083.63;5052976;28;20033;-71
2023/05/10 10:39:14;;;;;;;10.52;7.78;;;;;;;16.25;91.83;101078.13;5052997;28;20497;-73
2023/05/10 10:41:49;;;;;;;10.48;8.40;;;;;;;16.42;93.84;101072.66;5052623;28;20428;-74
2023/05/10 10:44:46;;;;;;;11.98;6.65;;;;;;;16.56;92.00;101071.63;5052623;28;20428;-73
2023/05/10 10:47:14;;;;;;;11.90;6.93;;;;;;;16.55;89.42;101081.41;4991986;28;20196;-74
2023/05/10 10:49:48;;;;;;;9.50;6.45;;;;;;;16.52;91.04;101073.44;5033382;28;20083;-73
2023/05/10 10:52:23;;;;;;;11.60;6.60;;;;;;;16.43;88.61;101079.75;5054514;28;20021;-73
2023/05/10 10:55:12;;;;;;;13.95;6.28;;;;;;;16.30;89.14;101083.41;5041870;28;20026;-74
2023/05/10 10:57:40;;;;;;;9.45;5.90;;;;;;;16.13;87.61;101080.03;5052482;28;20045;-75
2023/05/10 11:00:29;;;;;;;7.82;5.80;;;;;;;16.09;89.80;101072.94;5052904;28;20363;-74
2023/05/10 11:03:13;;;;;;;11.60;6.00;;;;;;;16.07;90.96;101072.97;5033395;28;20375;-74
2023/05/10 11:05:46;;;;;;;9.27;5.90;;;;;;;16.11;90.89;101076.50;5033183;28;20482;-74
2023/05/10 11:08:25;;;;;;;13.50;6.13;;;;;;;16.23;91.88;101079.03;5033439;28;20191;-73